sensor_id;sensor_type;location;lat;lon;timestamp;pressure;altitude;pressure_sealevel;temperature;humidity
15382;BME280;7789;51.364;12.358;2023-05-21T00:03:26;100534.09;;;16.86;100.00
15382;BME280;7789;51.364;12.358;2023-05-21T00:08:31;100536.88;;;16.77;100.00
15382;BME280;7789;51.364;12.358;2023-05-21T00:13:35;100525.28;;;16.70;100.00
15382;BME280;7789;51.364;12.358;2023-05-21T00:18:40;100514.06;;;16.68;100.00
15382;BME280;7789;51.364;12.358;2023-05-21T00:23:44;100512.22;;;16.61;100.00
15382;BME280;7789;51.364;12.358;2023-05-21T00:28:49;100501.47;;;16.54;100.00
15382;BME280;7789;51.364;12.358;2023-05-21T00:33:53;100512.34;;;16.51;100.00
15382;BME280;7789;51.364;12.358;2023-05-21T00:38:57;100500.63;;;16.46;100.00
15382;BME280;7789;51.364;12.358;2023-05-21T00:44:00;100496.66;;;16.42;100.00
15382;BME280;7789;51.364;12.358;2023-05-21T00:49:05;100495.00;;;16.41;100.00
15382;BME280;7789;51.364;12.358;2023-05-21T00:54:09;100500.75;;;16.36;100.00
15382;BME280;7789;51.364;12.358;2023-05-21T00:59:14;100502.03;;;16.32;100.00
15382;BME280;7789;51.364;12.358;2023-05-21T01:04:21;100497.06;;;16.29;100.00
15382;BME280;7789;51.364;12.358;2023-05-21T01:09:25;100484.50;;;16.23;100.00
15382;BME280;7789;51.364;12.358;2023-05-21T01:14:30;100484.81;;;16.20;100.00
15382;BME280;7789;51.364;12.358;2023-05-21T01:19:37;100480.53;;;16.19;100.00
15382;BME280;7789;51.364;12.358;2023-05-21T01:24:48;100481.66;;;16.17;100.00
15382;BME280;7789;51.364;12.358;2023-05-21T01:29:52;100474.25;;;16.12;100.00
15382;BME280;7789;51.364;12.358;2023-05-21T01:35:01;100470.09;;;16.10;100.00
15382;BME280;7789;51.364;12.358;2023-05-21T01:40:11;100477.66;;;16.05;100.00
15382;BME280;7789;51.364;12.358;2023-05-21T01:45:17;100471.56;;;16.04;100.00
15382;BME280;7789;51.364;12.358;2023-05-21T01:50:22;100465.59;;;16.02;100.00
15382;BME280;7789;51.364;12.358;2023-05-21T01:55:28;100462.78;;;15.96;100.00
15382;BME280;7789;51.364;12.358;2023-05-21T02:00:31;100461.59;;;15.90;100.00
15382;BME280;7789;51.364;12.358;2023-05-21T02:05:35;100459.13;;;15.89;100.00
15382;BME280;7789;51.364;12.358;2023-05-21T02:10:40;100455.66;;;15.88;100.00
15382;BME280;7789;51.364;12.358;2023-05-21T02:15:43;100455.66;;;15.88;100.00
15382;BME280;7789;51.364;12.358;2023-05-21T02:20:47;100456.28;;;15.82;100.00
15382;BME280;7789;51.364;12.358;2023-05-21T02:25:52;100451.78;;;15.75;100.00
15382;BME280;7789;51.364;12.358;2023-05-21T02:30:55;100453.09;;;15.71;100.00
15382;BME280;7789;51.364;12.358;2023-05-21T02:35:58;100449.13;;;15.67;100.00
15382;BME280;7789;51.364;12.358;2023-05-21T02:41:03;100459.13;;;15.63;100.00
15382;BME280;7789;51.364;12.358;2023-05-21T02:46:07;100468.13;;;15.53;100.00
15382;BME280;7789;51.364;12.358;2023-05-21T02:51:10;100466.09;;;15.47;100.00
15382;BME280;7789;51.364;12.358;2023-05-21T02:56:15;100463.41;;;15.39;100.00
15382;BME280;7789;51.364;12.358;2023-05-21T03:01:19;100468.31;;;15.34;100.00
15382;BME280;7789;51.364;12.358;2023-05-21T03:06:22;100457.41;;;15.29;100.00
15382;BME280;7789;51.364;12.358;2023-05-21T03:11:27;100458.78;;;15.33;100.00
15382;BME280;7789;51.364;12.358;2023-05-21T03:16:30;100447.97;;;15.26;100.00
15382;BME280;7789;51.364;12.358;2023-05-21T03:21:36;100441.44;;;15.30;100.00
15382;BME280;7789;51.364;12.358;2023-05-21T03:26:50;100450.63;;;15.26;100.00
15382;BME280;7789;51.364;12.358;2023-05-21T03:31:57;100445.66;;;15.23;100.00
15382;BME280;7789;51.364;12.358;2023-05-21T03:37:00;100446.09;;;15.19;100.00
15382;BME280;7789;51.364;12.358;2023-05-21T03:42:05;100451.59;;;15.25;100.00
15382;BME280;7789;51.364;12.358;2023-05-21T03:47:08;100439.84;;;15.20;100.00
15382;BME280;7789;51.364;12.358;2023-05-21T03:52:11;100450.22;;;15.21;100.00
15382;BME280;7789;51.364;12.358;2023-05-21T03:57:16;100450.09;;;15.23;100.00
15382;BME280;7789;51.364;12.358;2023-05-21T04:02:20;100445.50;;;15.25;100.00
15382;BME280;7789;51.364;12.358;2023-05-21T04:07:24;100445.75;;;15.31;100.00
15382;BME280;7789;51.364;12.358;2023-05-21T04:12:29;100457.53;;;15.45;100.00
15382;BME280;7789;51.364;12.358;2023-05-21T04:17:32;100454.56;;;15.48;100.00
15382;BME280;7789;51.364;12.358;2023-05-21T04:22:36;100453.31;;;15.52;100.00
15382;BME280;7789;51.364;12.358;2023-05-21T04:27:40;100459.06;;;15.55;100.00
15382;BME280;7789;51.364;12.358;2023-05-21T04:32:48;100455.19;;;15.67;100.00
15382;BME280;7789;51.364;12.358;2023-05-21T04:37:53;100458.38;;;15.71;100.00
15382;BME280;7789;51.364;12.358;2023-05-21T04:42:58;100459.84;;;15.73;100.00
15382;BME280;7789;51.364;12.358;2023-05-21T04:48:02;100459.13;;;15.89;100.00
15382;BME280;7789;51.364;12.358;2023-05-21T04:53:06;100461.66;;;16.06;100.00
15382;BME280;7789;51.364;12.358;2023-05-21T04:58:10;100454.47;;;16.16;100.00
15382;BME280;7789;51.364;12.358;2023-05-21T05:03:14;100451.84;;;16.24;100.00
15382;BME280;7789;51.364;12.358;2023-05-21T05:08:17;100457.00;;;16.34;100.00
15382;BME280;7789;51.364;12.358;2023-05-21T05:13:22;100450.13;;;16.41;100.00
15382;BME280;7789;51.364;12.358;2023-05-21T05:18:25;100447.56;;;16.57;100.00
15382;BME280;7789;51.364;12.358;2023-05-21T05:23:28;100448.75;;;16.86;100.00
15382;BME280;7789;51.364;12.358;2023-05-21T05:28:33;100454.22;;;17.16;100.00
15382;BME280;7789;51.364;12.358;2023-05-21T05:33:36;100445.63;;;17.70;100.00
15382;BME280;7789;51.364;12.358;2023-05-21T05:38:39;100443.88;;;18.40;100.00
15382;BME280;7789;51.364;12.358;2023-05-21T05:43:46;100440.94;;;19.32;100.00
15382;BME280;7789;51.364;12.358;2023-05-21T05:48:50;100433.44;;;20.02;99.35
15382;BME280;7789;51.364;12.358;2023-05-21T05:53:53;100434.00;;;20.47;94.04
15382;BME280;7789;51.364;12.358;2023-05-21T05:58:58;100434.09;;;20.54;91.12
15382;BME280;7789;51.364;12.358;2023-05-21T06:04:01;100428.78;;;20.54;90.86
15382;BME280;7789;51.364;12.358;2023-05-21T06:09:04;100433.81;;;20.84;88.53
15382;BME280;7789;51.364;12.358;2023-05-21T06:14:10;100436.22;;;21.00;86.59
15382;BME280;7789;51.364;12.358;2023-05-21T06:19:14;100436.41;;;20.77;86.92
15382;BME280;7789;51.364;12.358;2023-05-21T06:24:17;100440.88;;;20.77;86.94
15382;BME280;7789;51.364;12.358;2023-05-21T06:29:22;100432.47;;;20.73;87.49
15382;BME280;7789;51.364;12.358;2023-05-21T06:34:25;100434.66;;;20.84;87.72
15382;BME280;7789;51.364;12.358;2023-05-21T06:39:29;100440.09;;;20.97;86.54
15382;BME280;7789;51.364;12.358;2023-05-21T06:44:34;100434.25;;;21.29;84.82
15382;BME280;7789;51.364;12.358;2023-05-21T06:49:37;100439.13;;;21.74;84.43
15382;BME280;7789;51.364;12.358;2023-05-21T06:54:40;100444.34;;;22.36;80.32
15382;BME280;7789;51.364;12.358;2023-05-21T06:59:46;100424.69;;;22.37;79.33
15382;BME280;7789;51.364;12.358;2023-05-21T07:04:49;100434.47;;;22.23;78.71
15382;BME280;7789;51.364;12.358;2023-05-21T07:09:58;100439.72;;;22.51;77.71
15382;BME280;7789;51.364;12.358;2023-05-21T07:15:04;100448.53;;;23.30;75.15
15382;BME280;7789;51.364;12.358;2023-05-21T07:20:09;100434.69;;;24.05;72.42
15382;BME280;7789;51.364;12.358;2023-05-21T07:25:13;100423.25;;;24.35;71.53
15382;BME280;7789;51.364;12.358;2023-05-21T07:30:18;100421.03;;;24.32;70.27
15382;BME280;7789;51.364;12.358;2023-05-21T07:35:23;100427.91;;;24.59;68.45
15382;BME280;7789;51.364;12.358;2023-05-21T07:40:27;100419.09;;;25.20;66.53
15382;BME280;7789;51.364;12.358;2023-05-21T07:45:34;100425.25;;;25.21;66.13
15382;BME280;7789;51.364;12.358;2023-05-21T07:50:37;100423.63;;;25.20;65.12
15382;BME280;7789;51.364;12.358;2023-05-21T07:55:44;100426.19;;;25.33;65.46
15382;BME280;7789;51.364;12.358;2023-05-21T08:00:50;100407.16;;;25.41;64.79
15382;BME280;7789;51.364;12.358;2023-05-21T08:06:00;100407.78;;;25.61;64.55
15382;BME280;7789;51.364;12.358;2023-05-21T08:11:03;100403.63;;;25.89;63.75
15382;BME280;7789;51.364;12.358;2023-05-21T08:16:11;100408.06;;;26.13;62.87
15382;BME280;7789;51.364;12.358;2023-05-21T08:21:14;100406.88;;;26.27;61.76
15382;BME280;7789;51.364;12.358;2023-05-21T08:26:18;100403.53;;;26.32;60.64
15382;BME280;7789;51.364;12.358;2023-05-21T08:31:23;100406.56;;;26.17;61.33
15382;BME280;7789;51.364;12.358;2023-05-21T08:36:29;100398.16;;;26.32;59.11
15382;BME280;7789;51.364;12.358;2023-05-21T08:41:34;100406.91;;;26.39;58.47
15382;BME280;7789;51.364;12.358;2023-05-21T08:46:44;100397.91;;;26.51;58.76
15382;BME280;7789;51.364;12.358;2023-05-21T08:51:48;100391.50;;;26.52;58.41
15382;BME280;7789;51.364;12.358;2023-05-21T08:56:57;100396.41;;;26.37;58.66
15382;BME280;7789;51.364;12.358;2023-05-21T09:02:06;100400.97;;;26.55;57.13
15382;BME280;7789;51.364;12.358;2023-05-21T09:07:10;100400.06;;;26.72;57.63
15382;BME280;7789;51.364;12.358;2023-05-21T09:12:13;100389.78;;;26.58;57.81
15382;BME280;7789;51.364;12.358;2023-05-21T09:17:22;100395.41;;;26.68;57.85
15382;BME280;7789;51.364;12.358;2023-05-21T09:22:26;100396.22;;;26.68;57.44
15382;BME280;7789;51.364;12.358;2023-05-21T09:27:32;100395.03;;;26.64;57.62
15382;BME280;7789;51.364;12.358;2023-05-21T09:32:36;100398.91;;;26.68;56.42
15382;BME280;7789;51.364;12.358;2023-05-21T09:37:40;100392.03;;;26.72;56.13
15382;BME280;7789;51.364;12.358;2023-05-21T09:42:47;100381.19;;;26.78;56.76
15382;BME280;7789;51.364;12.358;2023-05-21T09:47:55;100387.88;;;26.87;57.20
15382;BME280;7789;51.364;12.358;2023-05-21T09:52:59;100372.34;;;26.89;57.00
15382;BME280;7789;51.364;12.358;2023-05-21T09:58:02;100373.41;;;26.88;57.20
15382;BME280;7789;51.364;12.358;2023-05-21T10:03:08;100365.84;;;26.97;55.62
15382;BME280;7789;51.364;12.358;2023-05-21T10:08:16;100362.00;;;26.93;54.87
15382;BME280;7789;51.364;12.358;2023-05-21T10:13:21;100351.47;;;27.03;54.70
15382;BME280;7789;51.364;12.358;2023-05-21T10:18:27;100373.59;;;27.16;55.03
15382;BME280;7789;51.364;12.358;2023-05-21T10:23:34;100344.41;;;27.20;55.82
15382;BME280;7789;51.364;12.358;2023-05-21T10:28:39;100338.09;;;27.37;52.36
15382;BME280;7789;51.364;12.358;2023-05-21T10:33:43;100351.06;;;27.29;52.53
15382;BME280;7789;51.364;12.358;2023-05-21T10:38:50;100329.00;;;27.38;52.14
15382;BME280;7789;51.364;12.358;2023-05-21T10:44:04;100345.09;;;27.50;52.49
15382;BME280;7789;51.364;12.358;2023-05-21T10:49:26;100337.50;;;27.47;51.41
15382;BME280;7789;51.364;12.358;2023-05-21T11:00:20;100320.75;;;27.68;50.86
15382;BME280;7789;51.364;12.358;2023-05-21T11:05:49;100324.72;;;27.88;49.36
15382;BME280;7789;51.364;12.358;2023-05-21T11:10:54;100321.69;;;27.85;49.68
15382;BME280;7789;51.364;12.358;2023-05-21T11:16:13;100325.97;;;27.97;48.15
15382;BME280;7789;51.364;12.358;2023-05-21T11:21:22;100313.75;;;28.18;44.95
15382;BME280;7789;51.364;12.358;2023-05-21T11:26:59;100318.72;;;28.37;45.98
15382;BME280;7789;51.364;12.358;2023-05-21T11:32:09;100315.06;;;28.60;44.16
15382;BME280;7789;51.364;12.358;2023-05-21T11:37:30;100310.34;;;28.67;44.30
15382;BME280;7789;51.364;12.358;2023-05-21T11:42:38;100312.97;;;28.78;44.39
15382;BME280;7789;51.364;12.358;2023-05-21T11:47:43;100311.97;;;28.84;43.85
15382;BME280;7789;51.364;12.358;2023-05-21T11:52:51;100297.31;;;28.91;43.90
15382;BME280;7789;51.364;12.358;2023-05-21T11:57:55;100309.16;;;28.90;44.57
15382;BME280;7789;51.364;12.358;2023-05-21T12:03:08;100298.50;;;28.84;45.56
15382;BME280;7789;51.364;12.358;2023-05-21T12:08:21;100312.63;;;28.74;45.33
15382;BME280;7789;51.364;12.358;2023-05-21T12:13:26;100299.34;;;28.84;46.06
15382;BME280;7789;51.364;12.358;2023-05-21T12:18:35;100310.69;;;28.86;44.52
15382;BME280;7789;51.364;12.358;2023-05-21T12:23:40;100308.16;;;28.80;44.99
15382;BME280;7789;51.364;12.358;2023-05-21T12:28:49;100295.09;;;28.88;44.47
15382;BME280;7789;51.364;12.358;2023-05-21T12:33:55;100296.75;;;28.73;44.92
15382;BME280;7789;51.364;12.358;2023-05-21T12:39:01;100293.06;;;28.63;44.69
15382;BME280;7789;51.364;12.358;2023-05-21T12:44:04;100297.81;;;28.72;45.04
15382;BME280;7789;51.364;12.358;2023-05-21T12:49:34;100286.94;;;28.67;44.08
15382;BME280;7789;51.364;12.358;2023-05-21T12:54:40;100288.91;;;28.55;44.69
15382;BME280;7789;51.364;12.358;2023-05-21T12:59:46;100284.16;;;28.62;43.86
15382;BME280;7789;51.364;12.358;2023-05-21T13:04:55;100294.28;;;28.55;44.91
15382;BME280;7789;51.364;12.358;2023-05-21T13:10:00;100287.44;;;28.48;44.33
15382;BME280;7789;51.364;12.358;2023-05-21T13:15:09;100278.28;;;28.49;44.43
15382;BME280;7789;51.364;12.358;2023-05-21T13:20:14;100280.19;;;28.65;44.59
15382;BME280;7789;51.364;12.358;2023-05-21T13:25:25;100271.91;;;28.55;43.90
15382;BME280;7789;51.364;12.358;2023-05-21T13:30:33;100277.72;;;28.63;43.99
15382;BME280;7789;51.364;12.358;2023-05-21T13:35:37;100270.88;;;28.56;43.89
15382;BME280;7789;51.364;12.358;2023-05-21T13:40:53;100274.53;;;28.66;44.14
15382;BME280;7789;51.364;12.358;2023-05-21T13:46:01;100259.13;;;28.62;43.70
15382;BME280;7789;51.364;12.358;2023-05-21T13:51:05;100251.38;;;28.65;43.36
15382;BME280;7789;51.364;12.358;2023-05-21T13:56:10;100258.66;;;28.65;43.89
15382;BME280;7789;51.364;12.358;2023-05-21T14:01:23;100259.38;;;28.60;44.24
15382;BME280;7789;51.364;12.358;2023-05-21T14:06:34;100273.88;;;28.59;43.92
15382;BME280;7789;51.364;12.358;2023-05-21T14:11:39;100253.34;;;28.53;42.90
15382;BME280;7789;51.364;12.358;2023-05-21T14:16:48;100257.72;;;28.43;41.86
15382;BME280;7789;51.364;12.358;2023-05-21T14:21:52;100266.53;;;28.38;40.63
15382;BME280;7789;51.364;12.358;2023-05-21T14:26:56;100257.63;;;28.38;40.81
15382;BME280;7789;51.364;12.358;2023-05-21T14:32:07;100260.09;;;28.39;40.20
15382;BME280;7789;51.364;12.358;2023-05-21T14:37:10;100253.69;;;28.29;40.45
15382;BME280;7789;51.364;12.358;2023-05-21T14:42:18;100259.94;;;28.18;40.55
15382;BME280;7789;51.364;12.358;2023-05-21T14:47:22;100270.13;;;28.16;40.79
15382;BME280;7789;51.364;12.358;2023-05-21T14:52:28;100261.41;;;28.09;40.90
15382;BME280;7789;51.364;12.358;2023-05-21T14:57:36;100251.78;;;28.13;41.56
15382;BME280;7789;51.364;12.358;2023-05-21T15:02:41;100260.66;;;28.13;41.47
15382;BME280;7789;51.364;12.358;2023-05-21T15:07:45;100264.81;;;28.04;41.90
15382;BME280;7789;51.364;12.358;2023-05-21T15:12:50;100262.69;;;28.06;41.98
15382;BME280;7789;51.364;12.358;2023-05-21T15:17:54;100274.44;;;28.00;41.21
15382;BME280;7789;51.364;12.358;2023-05-21T15:23:04;100258.56;;;27.87;40.74
15382;BME280;7789;51.364;12.358;2023-05-21T15:28:19;100259.63;;;27.86;41.25
15382;BME280;7789;51.364;12.358;2023-05-21T15:33:24;100258.75;;;27.97;41.57
15382;BME280;7789;51.364;12.358;2023-05-21T15:38:29;100260.44;;;27.87;42.34
15382;BME280;7789;51.364;12.358;2023-05-21T15:43:35;100253.78;;;27.89;42.28
15382;BME280;7789;51.364;12.358;2023-05-21T15:48:38;100242.59;;;27.81;42.21
15382;BME280;7789;51.364;12.358;2023-05-21T15:53:42;100242.22;;;27.77;42.92
15382;BME280;7789;51.364;12.358;2023-05-21T15:58:55;100241.75;;;27.69;43.19
15382;BME280;7789;51.364;12.358;2023-05-21T16:04:04;100243.44;;;27.58;43.18
15382;BME280;7789;51.364;12.358;2023-05-21T16:09:08;100249.44;;;27.49;43.71
15382;BME280;7789;51.364;12.358;2023-05-21T16:14:15;100242.31;;;27.43;43.60
15382;BME280;7789;51.364;12.358;2023-05-21T16:19:19;100245.63;;;27.33;43.03
15382;BME280;7789;51.364;12.358;2023-05-21T16:24:22;100240.72;;;27.19;42.86
15382;BME280;7789;51.364;12.358;2023-05-21T16:29:27;100236.53;;;27.11;44.01
15382;BME280;7789;51.364;12.358;2023-05-21T16:34:30;100227.41;;;27.01;44.52
15382;BME280;7789;51.364;12.358;2023-05-21T16:39:37;100236.03;;;26.91;45.68
15382;BME280;7789;51.364;12.358;2023-05-21T16:44:42;100228.00;;;26.80;46.38
15382;BME280;7789;51.364;12.358;2023-05-21T16:49:48;100230.69;;;26.69;47.11
15382;BME280;7789;51.364;12.358;2023-05-21T16:54:52;100229.97;;;26.62;48.13
15382;BME280;7789;51.364;12.358;2023-05-21T16:59:56;100236.72;;;26.53;48.59
15382;BME280;7789;51.364;12.358;2023-05-21T17:05:06;100238.31;;;26.42;48.91
15382;BME280;7789;51.364;12.358;2023-05-21T17:10:10;100232.31;;;26.29;47.08
15382;BME280;7789;51.364;12.358;2023-05-21T17:15:18;100229.97;;;26.21;47.03
15382;BME280;7789;51.364;12.358;2023-05-21T17:20:21;100224.13;;;26.12;47.12
15382;BME280;7789;51.364;12.358;2023-05-21T17:25:26;100227.13;;;26.04;47.12
15382;BME280;7789;51.364;12.358;2023-05-21T17:30:31;100230.97;;;25.97;47.53
15382;BME280;7789;51.364;12.358;2023-05-21T17:35:34;100229.28;;;25.84;47.78
15382;BME280;7789;51.364;12.358;2023-05-21T17:40:38;100236.78;;;25.76;48.53
15382;BME280;7789;51.364;12.358;2023-05-21T17:45:43;100223.91;;;25.66;49.05
15382;BME280;7789;51.364;12.358;2023-05-21T17:50:47;100237.41;;;25.60;49.70
15382;BME280;7789;51.364;12.358;2023-05-21T17:55:53;100236.88;;;25.51;50.00
15382;BME280;7789;51.364;12.358;2023-05-21T18:00:58;100235.78;;;25.41;50.71
15382;BME280;7789;51.364;12.358;2023-05-21T18:06:04;100238.53;;;25.34;51.43
15382;BME280;7789;51.364;12.358;2023-05-21T18:11:10;100246.28;;;25.24;51.64
15382;BME280;7789;51.364;12.358;2023-05-21T18:16:15;100242.91;;;25.11;52.74
15382;BME280;7789;51.364;12.358;2023-05-21T18:21:18;100246.91;;;25.02;53.24
15382;BME280;7789;51.364;12.358;2023-05-21T18:26:21;100249.88;;;24.94;53.74
15382;BME280;7789;51.364;12.358;2023-05-21T18:31:36;100243.34;;;24.83;54.42
15382;BME280;7789;51.364;12.358;2023-05-21T18:36:47;100251.69;;;24.75;55.35
15382;BME280;7789;51.364;12.358;2023-05-21T18:41:51;100259.81;;;24.63;56.13
15382;BME280;7789;51.364;12.358;2023-05-21T18:47:14;100265.00;;;24.51;57.07
15382;BME280;7789;51.364;12.358;2023-05-21T18:52:21;100258.13;;;24.37;58.27
15382;BME280;7789;51.364;12.358;2023-05-21T18:57:24;100264.00;;;24.21;58.47
15382;BME280;7789;51.364;12.358;2023-05-21T19:02:29;100265.50;;;24.11;59.93
15382;BME280;7789;51.364;12.358;2023-05-21T19:07:33;100268.22;;;23.98;60.10
15382;BME280;7789;51.364;12.358;2023-05-21T19:12:37;100277.16;;;23.85;61.42
15382;BME280;7789;51.364;12.358;2023-05-21T19:17:45;100276.34;;;23.72;62.04
15382;BME280;7789;51.364;12.358;2023-05-21T19:22:48;100282.34;;;23.61;62.72
15382;BME280;7789;51.364;12.358;2023-05-21T19:27:52;100280.75;;;23.47;63.49
15382;BME280;7789;51.364;12.358;2023-05-21T19:32:58;100286.75;;;23.36;64.08
15382;BME280;7789;51.364;12.358;2023-05-21T19:38:05;100285.56;;;23.25;64.60
15382;BME280;7789;51.364;12.358;2023-05-21T19:43:09;100284.72;;;23.12;64.91
15382;BME280;7789;51.364;12.358;2023-05-21T19:48:22;100286.78;;;23.03;65.04
15382;BME280;7789;51.364;12.358;2023-05-21T19:53:25;100293.97;;;22.96;65.06
15382;BME280;7789;51.364;12.358;2023-05-21T19:58:31;100282.69;;;22.88;65.07
15382;BME280;7789;51.364;12.358;2023-05-21T20:03:36;100282.50;;;22.76;65.35
15382;BME280;7789;51.364;12.358;2023-05-21T20:08:45;100275.31;;;22.70;65.54
15382;BME280;7789;51.364;12.358;2023-05-21T20:13:48;100289.66;;;22.63;65.88
15382;BME280;7789;51.364;12.358;2023-05-21T20:18:59;100277.56;;;22.61;66.11
15382;BME280;7789;51.364;12.358;2023-05-21T20:24:05;100275.94;;;22.53;66.79
15382;BME280;7789;51.364;12.358;2023-05-21T20:29:09;100276.13;;;22.52;66.78
15382;BME280;7789;51.364;12.358;2023-05-21T20:34:14;100276.94;;;22.46;67.16
15382;BME280;7789;51.364;12.358;2023-05-21T20:39:18;100275.91;;;22.40;67.49
15382;BME280;7789;51.364;12.358;2023-05-21T20:44:26;100280.63;;;22.38;67.97
15382;BME280;7789;51.364;12.358;2023-05-21T20:49:53;100279.56;;;22.33;67.93
15382;BME280;7789;51.364;12.358;2023-05-21T20:55:04;100278.75;;;22.26;68.89
15382;BME280;7789;51.364;12.358;2023-05-21T21:00:11;100288.34;;;22.20;69.01
15382;BME280;7789;51.364;12.358;2023-05-21T21:05:40;100287.50;;;22.20;69.80
15382;BME280;7789;51.364;12.358;2023-05-21T21:10:53;100289.16;;;22.14;70.29
15382;BME280;7789;51.364;12.358;2023-05-21T21:16:07;100284.63;;;22.08;70.96
15382;BME280;7789;51.364;12.358;2023-05-21T21:21:12;100293.44;;;22.02;71.61
15382;BME280;7789;51.364;12.358;2023-05-21T21:26:17;100292.38;;;21.97;71.86
15382;BME280;7789;51.364;12.358;2023-05-21T21:31:23;100294.84;;;21.92;72.50
15382;BME280;7789;51.364;12.358;2023-05-21T21:36:32;100298.28;;;21.86;72.98
15382;BME280;7789;51.364;12.358;2023-05-21T21:41:42;100302.75;;;21.79;73.45
15382;BME280;7789;51.364;12.358;2023-05-21T21:46:52;100300.69;;;21.74;74.08
15382;BME280;7789;51.364;12.358;2023-05-21T21:52:03;100296.59;;;21.72;74.26
15382;BME280;7789;51.364;12.358;2023-05-21T21:57:09;100295.94;;;21.63;74.74
15382;BME280;7789;51.364;12.358;2023-05-21T22:02:13;100299.16;;;21.59;75.06
15382;BME280;7789;51.364;12.358;2023-05-21T22:07:25;100300.78;;;21.53;75.35
15382;BME280;7789;51.364;12.358;2023-05-21T22:12:33;100292.75;;;21.47;76.00
15382;BME280;7789;51.364;12.358;2023-05-21T22:17:38;100302.97;;;21.43;76.20
15382;BME280;7789;51.364;12.358;2023-05-21T22:22:54;100296.59;;;21.38;76.81
15382;BME280;7789;51.364;12.358;2023-05-21T22:28:02;100291.88;;;21.33;77.20
15382;BME280;7789;51.364;12.358;2023-05-21T22:33:08;100294.31;;;21.28;77.55
15382;BME280;7789;51.364;12.358;2023-05-21T22:38:19;100288.50;;;21.18;78.43
15382;BME280;7789;51.364;12.358;2023-05-21T22:43:26;100287.66;;;21.11;78.60
15382;BME280;7789;51.364;12.358;2023-05-21T22:48:30;100282.28;;;21.05;79.38
15382;BME280;7789;51.364;12.358;2023-05-21T22:53:41;100285.91;;;20.97;79.88
15382;BME280;7789;51.364;12.358;2023-05-21T22:58:45;100283.66;;;20.94;79.93
15382;BME280;7789;51.364;12.358;2023-05-21T23:03:50;100287.06;;;20.88;80.60
15382;BME280;7789;51.364;12.358;2023-05-21T23:08:59;100295.03;;;20.88;80.77
15382;BME280;7789;51.364;12.358;2023-05-21T23:14:04;100290.28;;;20.84;80.82
15382;BME280;7789;51.364;12.358;2023-05-21T23:19:12;100294.13;;;20.81;81.20
15382;BME280;7789;51.364;12.358;2023-05-21T23:24:20;100293.06;;;20.76;81.67
15382;BME280;7789;51.364;12.358;2023-05-21T23:29:25;100291.19;;;20.70;82.16
15382;BME280;7789;51.364;12.358;2023-05-21T23:34:30;100288.09;;;20.67;81.99
15382;BME280;7789;51.364;12.358;2023-05-21T23:39:37;100284.53;;;20.60;82.72
15382;BME280;7789;51.364;12.358;2023-05-21T23:44:45;100281.63;;;20.55;83.36
15382;BME280;7789;51.364;12.358;2023-05-21T23:49:52;100282.19;;;20.50;83.41
15382;BME280;7789;51.364;12.358;2023-05-21T23:55:13;100283.97;;;20.43;84.38
